sensor_id;sensor_type;location;lat;lon;timestamp;temperature;humidity
9980;DHT22;5030;51.532;6.766;2022-09-09T00:01:43;14.80;99.90
9980;DHT22;5030;51.532;6.766;2022-09-09T00:04:28;14.80;99.90
9980;DHT22;5030;51.532;6.766;2022-09-09T00:07:05;14.80;99.90
9980;DHT22;5030;51.532;6.766;2022-09-09T00:09:39;14.80;99.90
9980;DHT22;5030;51.532;6.766;2022-09-09T00:18:01;14.60;99.90
9980;DHT22;5030;51.532;6.766;2022-09-09T00:20:32;14.60;99.90
9980;DHT22;5030;51.532;6.766;2022-09-09T00:23:00;14.50;99.90
9980;DHT22;5030;51.532;6.766;2022-09-09T00:25:49;14.50;99.90
9980;DHT22;5030;51.532;6.766;2022-09-09T00:28:24;14.50;99.90
9980;DHT22;5030;51.532;6.766;2022-09-09T00:30:51;14.40;99.90
9980;DHT22;5030;51.532;6.766;2022-09-09T00:33:20;14.30;99.90
9980;DHT22;5030;51.532;6.766;2022-09-09T00:35:52;14.20;99.90
9980;DHT22;5030;51.532;6.766;2022-09-09T00:38:24;14.20;99.90
9980;DHT22;5030;51.532;6.766;2022-09-09T00:41:01;14.20;99.90
9980;DHT22;5030;51.532;6.766;2022-09-09T00:43:31;14.20;99.90
9980;DHT22;5030;51.532;6.766;2022-09-09T00:57:28;14.30;99.90
9980;DHT22;5030;51.532;6.766;2022-09-09T01:00:17;14.30;99.90
9980;DHT22;5030;51.532;6.766;2022-09-09T01:06:02;14.30;99.90
9980;DHT22;5030;51.532;6.766;2022-09-09T01:11:05;14.30;99.90
9980;DHT22;5030;51.532;6.766;2022-09-09T01:13:35;14.30;99.90
9980;DHT22;5030;51.532;6.766;2022-09-09T01:16:03;14.30;99.90
9980;DHT22;5030;51.532;6.766;2022-09-09T01:18:33;14.30;99.90
9980;DHT22;5030;51.532;6.766;2022-09-09T01:21:14;14.20;99.90
9980;DHT22;5030;51.532;6.766;2022-09-09T01:26:46;14.20;99.90
9980;DHT22;5030;51.532;6.766;2022-09-09T01:29:15;14.20;99.90
9980;DHT22;5030;51.532;6.766;2022-09-09T01:32:02;14.20;99.90
9980;DHT22;5030;51.532;6.766;2022-09-09T01:34:39;14.10;99.90
9980;DHT22;5030;51.532;6.766;2022-09-09T01:37:07;14.10;99.90
9980;DHT22;5030;51.532;6.766;2022-09-09T01:39:35;14.10;99.90
9980;DHT22;5030;51.532;6.766;2022-09-09T01:42:04;14.00;99.90
9980;DHT22;5030;51.532;6.766;2022-09-09T01:44:31;14.00;99.90
9980;DHT22;5030;51.532;6.766;2022-09-09T01:46:58;14.00;99.90
9980;DHT22;5030;51.532;6.766;2022-09-09T01:49:24;14.00;99.90
9980;DHT22;5030;51.532;6.766;2022-09-09T01:51:53;14.00;99.90
9980;DHT22;5030;51.532;6.766;2022-09-09T01:54:21;14.00;99.90
9980;DHT22;5030;51.532;6.766;2022-09-09T02:08:11;14.30;99.90
9980;DHT22;5030;51.532;6.766;2022-09-09T02:10:46;14.30;99.90
9980;DHT22;5030;51.532;6.766;2022-09-09T02:13:16;14.40;99.90
9980;DHT22;5030;51.532;6.766;2022-09-09T02:15:46;14.40;99.90
9980;DHT22;5030;51.532;6.766;2022-09-09T02:18:13;14.40;99.90
9980;DHT22;5030;51.532;6.766;2022-09-09T02:20:41;14.40;99.90
9980;DHT22;5030;51.532;6.766;2022-09-09T02:23:09;14.30;99.90
9980;DHT22;5030;51.532;6.766;2022-09-09T02:25:36;14.30;99.90
9980;DHT22;5030;51.532;6.766;2022-09-09T02:28:05;14.30;99.90
9980;DHT22;5030;51.532;6.766;2022-09-09T02:30:34;14.30;99.90
9980;DHT22;5030;51.532;6.766;2022-09-09T02:33:01;14.30;99.90
9980;DHT22;5030;51.532;6.766;2022-09-09T02:35:28;14.40;99.90
9980;DHT22;5030;51.532;6.766;2022-09-09T02:37:59;14.40;99.90
9980;DHT22;5030;51.532;6.766;2022-09-09T02:40:25;14.40;99.90
9980;DHT22;5030;51.532;6.766;2022-09-09T02:42:51;14.50;99.90
9980;DHT22;5030;51.532;6.766;2022-09-09T02:45:20;14.50;99.90
9980;DHT22;5030;51.532;6.766;2022-09-09T02:47:58;14.50;99.90
9980;DHT22;5030;51.532;6.766;2022-09-09T02:53:17;14.60;99.90
9980;DHT22;5030;51.532;6.766;2022-09-09T02:55:59;14.50;99.90
9980;DHT22;5030;51.532;6.766;2022-09-09T02:58:29;14.50;99.90
9980;DHT22;5030;51.532;6.766;2022-09-09T03:00:55;14.40;99.90
9980;DHT22;5030;51.532;6.766;2022-09-09T03:03:23;14.40;99.90
9980;DHT22;5030;51.532;6.766;2022-09-09T03:05:49;14.30;99.90
9980;DHT22;5030;51.532;6.766;2022-09-09T03:08:16;14.30;99.90
9980;DHT22;5030;51.532;6.766;2022-09-09T03:10:42;14.30;99.90
9980;DHT22;5030;51.532;6.766;2022-09-09T03:13:08;14.20;99.90
9980;DHT22;5030;51.532;6.766;2022-09-09T03:15:34;14.30;99.90
9980;DHT22;5030;51.532;6.766;2022-09-09T03:18:00;14.30;99.90
9980;DHT22;5030;51.532;6.766;2022-09-09T03:20:27;14.30;99.90
9980;DHT22;5030;51.532;6.766;2022-09-09T03:22:54;14.20;99.90
9980;DHT22;5030;51.532;6.766;2022-09-09T03:25:20;14.30;99.90
9980;DHT22;5030;51.532;6.766;2022-09-09T03:27:49;14.30;99.90
9980;DHT22;5030;51.532;6.766;2022-09-09T03:30:15;14.30;99.90
9980;DHT22;5030;51.532;6.766;2022-09-09T03:32:41;14.40;99.90
9980;DHT22;5030;51.532;6.766;2022-09-09T03:35:07;14.40;99.90
9980;DHT22;5030;51.532;6.766;2022-09-09T03:37:33;14.40;99.90
9980;DHT22;5030;51.532;6.766;2022-09-09T03:39:59;14.40;99.90
9980;DHT22;5030;51.532;6.766;2022-09-09T03:42:25;14.40;99.90
9980;DHT22;5030;51.532;6.766;2022-09-09T03:44:52;14.40;99.90
9980;DHT22;5030;51.532;6.766;2022-09-09T03:47:19;14.50;99.90
9980;DHT22;5030;51.532;6.766;2022-09-09T03:49:47;14.40;99.90
9980;DHT22;5030;51.532;6.766;2022-09-09T03:52:14;14.40;99.90
9980;DHT22;5030;51.532;6.766;2022-09-09T03:54:40;14.40;99.90
9980;DHT22;5030;51.532;6.766;2022-09-09T03:57:08;14.40;99.90
9980;DHT22;5030;51.532;6.766;2022-09-09T03:59:34;14.40;99.90
9980;DHT22;5030;51.532;6.766;2022-09-09T04:02:00;14.40;99.90
9980;DHT22;5030;51.532;6.766;2022-09-09T04:04:26;14.40;99.90
9980;DHT22;5030;51.532;6.766;2022-09-09T04:06:52;14.50;99.90
9980;DHT22;5030;51.532;6.766;2022-09-09T04:09:18;14.50;99.90
9980;DHT22;5030;51.532;6.766;2022-09-09T04:11:44;14.50;99.90
9980;DHT22;5030;51.532;6.766;2022-09-09T04:14:10;14.50;99.90
9980;DHT22;5030;51.532;6.766;2022-09-09T04:16:36;14.60;99.90
9980;DHT22;5030;51.532;6.766;2022-09-09T04:19:03;14.60;99.90
9980;DHT22;5030;51.532;6.766;2022-09-09T04:21:30;14.60;99.90
9980;DHT22;5030;51.532;6.766;2022-09-09T04:23:56;14.70;99.90
9980;DHT22;5030;51.532;6.766;2022-09-09T04:26:21;14.70;99.90
9980;DHT22;5030;51.532;6.766;2022-09-09T04:28:47;14.70;99.90
9980;DHT22;5030;51.532;6.766;2022-09-09T04:31:18;14.70;99.90
9980;DHT22;5030;51.532;6.766;2022-09-09T04:33:45;14.80;99.90
9980;DHT22;5030;51.532;6.766;2022-09-09T04:36:12;14.80;99.90
9980;DHT22;5030;51.532;6.766;2022-09-09T04:38:39;14.90;99.90
9980;DHT22;5030;51.532;6.766;2022-09-09T04:41:05;14.90;99.90
9980;DHT22;5030;51.532;6.766;2022-09-09T04:43:33;14.90;99.90
9980;DHT22;5030;51.532;6.766;2022-09-09T04:45:58;14.90;99.90
9980;DHT22;5030;51.532;6.766;2022-09-09T04:48:24;15.00;99.90
9980;DHT22;5030;51.532;6.766;2022-09-09T04:53:22;15.10;99.90
9980;DHT22;5030;51.532;6.766;2022-09-09T04:55:48;15.10;99.90
9980;DHT22;5030;51.532;6.766;2022-09-09T04:58:14;15.20;99.90
9980;DHT22;5030;51.532;6.766;2022-09-09T05:00:40;15.20;99.90
9980;DHT22;5030;51.532;6.766;2022-09-09T05:03:07;15.20;99.90
9980;DHT22;5030;51.532;6.766;2022-09-09T05:05:34;15.30;99.90
9980;DHT22;5030;51.532;6.766;2022-09-09T05:08:02;15.30;99.90
9980;DHT22;5030;51.532;6.766;2022-09-09T05:10:28;15.40;99.90
9980;DHT22;5030;51.532;6.766;2022-09-09T05:12:53;15.40;99.90
9980;DHT22;5030;51.532;6.766;2022-09-09T05:15:20;15.40;99.90
9980;DHT22;5030;51.532;6.766;2022-09-09T05:17:46;15.40;99.90
9980;DHT22;5030;51.532;6.766;2022-09-09T05:20:12;15.40;99.90
9980;DHT22;5030;51.532;6.766;2022-09-09T05:22:37;15.40;99.90
9980;DHT22;5030;51.532;6.766;2022-09-09T05:25:04;15.40;99.90
9980;DHT22;5030;51.532;6.766;2022-09-09T05:27:29;15.50;99.90
9980;DHT22;5030;51.532;6.766;2022-09-09T05:29:57;15.50;99.90
9980;DHT22;5030;51.532;6.766;2022-09-09T05:32:23;15.50;99.90
9980;DHT22;5030;51.532;6.766;2022-09-09T05:34:49;15.50;99.90
9980;DHT22;5030;51.532;6.766;2022-09-09T05:37:15;15.50;99.90
9980;DHT22;5030;51.532;6.766;2022-09-09T05:39:42;15.50;99.90
9980;DHT22;5030;51.532;6.766;2022-09-09T05:42:07;15.50;99.90
9980;DHT22;5030;51.532;6.766;2022-09-09T05:44:33;15.50;99.90
9980;DHT22;5030;51.532;6.766;2022-09-09T05:46:59;15.50;99.90
9980;DHT22;5030;51.532;6.766;2022-09-09T05:49:24;15.50;99.90
9980;DHT22;5030;51.532;6.766;2022-09-09T05:51:50;15.40;99.90
9980;DHT22;5030;51.532;6.766;2022-09-09T05:54:16;15.40;99.90
9980;DHT22;5030;51.532;6.766;2022-09-09T05:56:42;15.40;99.90
9980;DHT22;5030;51.532;6.766;2022-09-09T05:59:08;15.40;99.90
9980;DHT22;5030;51.532;6.766;2022-09-09T06:01:37;15.40;99.90
9980;DHT22;5030;51.532;6.766;2022-09-09T06:04:06;15.40;99.90
9980;DHT22;5030;51.532;6.766;2022-09-09T06:06:34;15.40;99.90
9980;DHT22;5030;51.532;6.766;2022-09-09T06:09:02;15.40;99.90
9980;DHT22;5030;51.532;6.766;2022-09-09T06:11:30;15.50;99.90
9980;DHT22;5030;51.532;6.766;2022-09-09T06:14:01;15.60;99.90
9980;DHT22;5030;51.532;6.766;2022-09-09T06:16:29;15.60;99.90
9980;DHT22;5030;51.532;6.766;2022-09-09T06:18:56;15.60;99.90
9980;DHT22;5030;51.532;6.766;2022-09-09T06:21:31;15.70;99.90
9980;DHT22;5030;51.532;6.766;2022-09-09T06:24:03;15.80;99.90
9980;DHT22;5030;51.532;6.766;2022-09-09T06:26:34;15.90;99.90
9980;DHT22;5030;51.532;6.766;2022-09-09T06:29:01;15.90;99.90
9980;DHT22;5030;51.532;6.766;2022-09-09T06:31:29;15.90;99.90
9980;DHT22;5030;51.532;6.766;2022-09-09T06:33:59;15.90;99.90
9980;DHT22;5030;51.532;6.766;2022-09-09T06:36:31;15.90;99.90
9980;DHT22;5030;51.532;6.766;2022-09-09T06:38:57;16.10;99.90
9980;DHT22;5030;51.532;6.766;2022-09-09T06:41:25;16.30;99.90
9980;DHT22;5030;51.532;6.766;2022-09-09T06:43:52;16.40;99.90
9980;DHT22;5030;51.532;6.766;2022-09-09T06:46:20;16.50;99.90
9980;DHT22;5030;51.532;6.766;2022-09-09T06:48:47;16.60;99.90
9980;DHT22;5030;51.532;6.766;2022-09-09T06:51:21;16.60;99.90
9980;DHT22;5030;51.532;6.766;2022-09-09T06:53:50;16.60;99.90
9980;DHT22;5030;51.532;6.766;2022-09-09T06:58:41;16.50;99.90
9980;DHT22;5030;51.532;6.766;2022-09-09T07:01:10;16.50;99.90
9980;DHT22;5030;51.532;6.766;2022-09-09T07:03:38;16.60;99.90
9980;DHT22;5030;51.532;6.766;2022-09-09T07:06:04;16.80;99.90
9980;DHT22;5030;51.532;6.766;2022-09-09T07:08:30;16.90;99.90
9980;DHT22;5030;51.532;6.766;2022-09-09T07:11:03;17.10;99.90
9980;DHT22;5030;51.532;6.766;2022-09-09T07:13:30;17.20;99.90
9980;DHT22;5030;51.532;6.766;2022-09-09T07:16:06;17.40;99.90
9980;DHT22;5030;51.532;6.766;2022-09-09T07:18:32;17.50;99.90
9980;DHT22;5030;51.532;6.766;2022-09-09T07:20:58;17.60;99.90
9980;DHT22;5030;51.532;6.766;2022-09-09T07:23:24;17.50;99.90
9980;DHT22;5030;51.532;6.766;2022-09-09T07:25:51;17.40;99.90
9980;DHT22;5030;51.532;6.766;2022-09-09T07:28:19;17.40;99.90
9980;DHT22;5030;51.532;6.766;2022-09-09T07:31:02;17.40;99.90
9980;DHT22;5030;51.532;6.766;2022-09-09T07:33:29;17.60;99.90
9980;DHT22;5030;51.532;6.766;2022-09-09T07:36:15;17.60;99.90
9980;DHT22;5030;51.532;6.766;2022-09-09T07:38:45;17.70;99.90
9980;DHT22;5030;51.532;6.766;2022-09-09T07:41:18;17.80;99.90
9980;DHT22;5030;51.532;6.766;2022-09-09T07:43:46;18.00;99.90
9980;DHT22;5030;51.532;6.766;2022-09-09T07:46:13;17.90;99.90
9980;DHT22;5030;51.532;6.766;2022-09-09T07:49:00;17.90;99.90
9980;DHT22;5030;51.532;6.766;2022-09-09T07:51:28;18.10;99.90
9980;DHT22;5030;51.532;6.766;2022-09-09T07:54:00;18.30;99.90
9980;DHT22;5030;51.532;6.766;2022-09-09T07:56:28;18.40;99.90
9980;DHT22;5030;51.532;6.766;2022-09-09T07:58:55;18.50;99.90
9980;DHT22;5030;51.532;6.766;2022-09-09T08:01:23;18.50;99.90
9980;DHT22;5030;51.532;6.766;2022-09-09T08:04:02;18.50;99.90
9980;DHT22;5030;51.532;6.766;2022-09-09T08:06:34;18.60;99.90
9980;DHT22;5030;51.532;6.766;2022-09-09T08:09:00;18.70;99.90
9980;DHT22;5030;51.532;6.766;2022-09-09T08:11:28;18.70;99.90
9980;DHT22;5030;51.532;6.766;2022-09-09T08:13:54;18.70;99.90
9980;DHT22;5030;51.532;6.766;2022-09-09T08:16:24;18.90;99.90
9980;DHT22;5030;51.532;6.766;2022-09-09T08:18:50;18.80;99.90
9980;DHT22;5030;51.532;6.766;2022-09-09T08:21:37;18.70;99.90
9980;DHT22;5030;51.532;6.766;2022-09-09T08:24:04;18.80;99.90
9980;DHT22;5030;51.532;6.766;2022-09-09T08:26:36;18.80;99.90
9980;DHT22;5030;51.532;6.766;2022-09-09T08:29:04;18.70;99.90
9980;DHT22;5030;51.532;6.766;2022-09-09T08:33:59;18.60;99.90
9980;DHT22;5030;51.532;6.766;2022-09-09T08:36:28;18.60;99.90
9980;DHT22;5030;51.532;6.766;2022-09-09T08:38:56;18.50;99.90
9980;DHT22;5030;51.532;6.766;2022-09-09T08:47:55;18.60;99.90
9980;DHT22;5030;51.532;6.766;2022-09-09T08:52:30;18.80;99.90
9980;DHT22;5030;51.532;6.766;2022-09-09T08:55:02;18.90;99.90
9980;DHT22;5030;51.532;6.766;2022-09-09T08:57:30;19.20;99.90
9980;DHT22;5030;51.532;6.766;2022-09-09T08:59:57;19.50;99.90
9980;DHT22;5030;51.532;6.766;2022-09-09T09:02:39;19.70;99.90
9980;DHT22;5030;51.532;6.766;2022-09-09T09:10:29;20.00;99.90
9980;DHT22;5030;51.532;6.766;2022-09-09T09:12:58;19.80;99.90
9980;DHT22;5030;51.532;6.766;2022-09-09T09:15:31;19.90;99.90
9980;DHT22;5030;51.532;6.766;2022-09-09T09:17:59;19.80;99.90
9980;DHT22;5030;51.532;6.766;2022-09-09T09:20:54;19.80;99.90
9980;DHT22;5030;51.532;6.766;2022-09-09T09:23:26;19.80;99.90
9980;DHT22;5030;51.532;6.766;2022-09-09T09:26:00;19.80;99.90
9980;DHT22;5030;51.532;6.766;2022-09-09T09:28:29;19.80;99.90
9980;DHT22;5030;51.532;6.766;2022-09-09T09:31:03;19.90;99.90
9980;DHT22;5030;51.532;6.766;2022-09-09T09:36:04;19.80;99.90
9980;DHT22;5030;51.532;6.766;2022-09-09T09:38:31;19.80;99.90
9980;DHT22;5030;51.532;6.766;2022-09-09T09:40:58;19.70;99.90
9980;DHT22;5030;51.532;6.766;2022-09-09T09:43:30;19.60;99.90
9980;DHT22;5030;51.532;6.766;2022-09-09T09:45:57;19.60;99.90
9980;DHT22;5030;51.532;6.766;2022-09-09T09:48:24;19.60;99.90
9980;DHT22;5030;51.532;6.766;2022-09-09T09:51:00;19.50;99.90
9980;DHT22;5030;51.532;6.766;2022-09-09T09:53:33;19.40;99.90
9980;DHT22;5030;51.532;6.766;2022-09-09T09:58:31;19.30;99.90
9980;DHT22;5030;51.532;6.766;2022-09-09T10:00:59;19.30;99.90
9980;DHT22;5030;51.532;6.766;2022-09-09T10:03:33;19.40;99.90
9980;DHT22;5030;51.532;6.766;2022-09-09T10:06:03;19.50;99.90
9980;DHT22;5030;51.532;6.766;2022-09-09T10:08:29;19.50;99.90
9980;DHT22;5030;51.532;6.766;2022-09-09T10:16:45;20.00;99.90
9980;DHT22;5030;51.532;6.766;2022-09-09T10:19:37;20.10;99.90
9980;DHT22;5030;51.532;6.766;2022-09-09T10:22:30;20.40;99.90
9980;DHT22;5030;51.532;6.766;2022-09-09T10:25:28;20.70;99.90
9980;DHT22;5030;51.532;6.766;2022-09-09T10:31:25;21.20;99.90
9980;DHT22;5030;51.532;6.766;2022-09-09T10:36:28;20.80;99.90
9980;DHT22;5030;51.532;6.766;2022-09-09T10:39:50;20.70;99.90
9980;DHT22;5030;51.532;6.766;2022-09-09T10:55:19;19.40;99.90
9980;DHT22;5030;51.532;6.766;2022-09-09T10:57:48;19.30;99.90
9980;DHT22;5030;51.532;6.766;2022-09-09T11:00:39;19.30;99.90
9980;DHT22;5030;51.532;6.766;2022-09-09T11:03:06;19.20;99.90
9980;DHT22;5030;51.532;6.766;2022-09-09T11:05:43;19.40;99.90
9980;DHT22;5030;51.532;6.766;2022-09-09T11:08:20;19.60;99.90
9980;DHT22;5030;51.532;6.766;2022-09-09T11:19:40;20.40;96.80
9980;DHT22;5030;51.532;6.766;2022-09-09T11:24:53;20.20;96.40
9980;DHT22;5030;51.532;6.766;2022-09-09T11:35:31;19.90;96.00
9980;DHT22;5030;51.532;6.766;2022-09-09T11:38:27;20.00;96.60
9980;DHT22;5030;51.532;6.766;2022-09-09T11:41:01;20.10;95.40
9980;DHT22;5030;51.532;6.766;2022-09-09T11:43:44;20.30;96.80
9980;DHT22;5030;51.532;6.766;2022-09-09T11:46:13;20.60;93.70
9980;DHT22;5030;51.532;6.766;2022-09-09T11:48:42;20.80;92.70
9980;DHT22;5030;51.532;6.766;2022-09-09T11:51:13;20.70;94.00
9980;DHT22;5030;51.532;6.766;2022-09-09T11:53:59;20.60;93.50
9980;DHT22;5030;51.532;6.766;2022-09-09T11:56:42;20.50;96.50
9980;DHT22;5030;51.532;6.766;2022-09-09T11:59:30;20.20;91.90
9980;DHT22;5030;51.532;6.766;2022-09-09T12:01:59;20.10;95.30
9980;DHT22;5030;51.532;6.766;2022-09-09T12:11:52;20.20;93.30
9980;DHT22;5030;51.532;6.766;2022-09-09T12:14:21;20.30;97.40
9980;DHT22;5030;51.532;6.766;2022-09-09T12:16:48;20.40;96.10
9980;DHT22;5030;51.532;6.766;2022-09-09T12:19:19;20.50;96.80
9980;DHT22;5030;51.532;6.766;2022-09-09T12:30:15;20.50;95.10
9980;DHT22;5030;51.532;6.766;2022-09-09T12:32:42;20.50;95.90
9980;DHT22;5030;51.532;6.766;2022-09-09T12:35:11;20.40;94.80
9980;DHT22;5030;51.532;6.766;2022-09-09T12:37:42;20.40;95.20
9980;DHT22;5030;51.532;6.766;2022-09-09T12:40:25;20.30;96.00
9980;DHT22;5030;51.532;6.766;2022-09-09T12:42:51;19.90;99.90
9980;DHT22;5030;51.532;6.766;2022-09-09T12:45:22;19.50;99.90
9980;DHT22;5030;51.532;6.766;2022-09-09T12:47:53;19.70;99.90
9980;DHT22;5030;51.532;6.766;2022-09-09T12:50:33;20.20;99.90
9980;DHT22;5030;51.532;6.766;2022-09-09T12:53:03;19.90;99.90
9980;DHT22;5030;51.532;6.766;2022-09-09T12:55:51;19.70;99.90
9980;DHT22;5030;51.532;6.766;2022-09-09T12:58:18;19.50;99.90
9980;DHT22;5030;51.532;6.766;2022-09-09T13:00:52;19.20;99.90
9980;DHT22;5030;51.532;6.766;2022-09-09T13:03:20;19.10;99.90
9980;DHT22;5030;51.532;6.766;2022-09-09T13:05:49;19.00;99.90
9980;DHT22;5030;51.532;6.766;2022-09-09T13:08:16;19.00;99.90
9980;DHT22;5030;51.532;6.766;2022-09-09T13:11:02;18.90;99.90
9980;DHT22;5030;51.532;6.766;2022-09-09T13:13:36;18.90;99.90
9980;DHT22;5030;51.532;6.766;2022-09-09T13:16:04;19.00;99.90
9980;DHT22;5030;51.532;6.766;2022-09-09T13:18:35;19.00;99.90
9980;DHT22;5030;51.532;6.766;2022-09-09T13:21:01;19.20;99.90
9980;DHT22;5030;51.532;6.766;2022-09-09T13:23:33;19.40;99.90
9980;DHT22;5030;51.532;6.766;2022-09-09T13:26:06;19.60;99.90
9980;DHT22;5030;51.532;6.766;2022-09-09T13:28:46;19.60;99.90
9980;DHT22;5030;51.532;6.766;2022-09-09T13:31:24;19.90;99.90
9980;DHT22;5030;51.532;6.766;2022-09-09T13:33:53;20.40;99.90
9980;DHT22;5030;51.532;6.766;2022-09-09T13:36:28;20.80;99.90
9980;DHT22;5030;51.532;6.766;2022-09-09T13:38:57;21.20;99.90
9980;DHT22;5030;51.532;6.766;2022-09-09T13:41:36;21.10;99.90
9980;DHT22;5030;51.532;6.766;2022-09-09T13:44:05;21.40;99.90
9980;DHT22;5030;51.532;6.766;2022-09-09T13:46:40;21.90;99.90
9980;DHT22;5030;51.532;6.766;2022-09-09T13:51:45;22.40;99.90
9980;DHT22;5030;51.532;6.766;2022-09-09T13:54:13;22.40;99.90
9980;DHT22;5030;51.532;6.766;2022-09-09T13:56:40;22.80;99.90
9980;DHT22;5030;51.532;6.766;2022-09-09T13:59:11;22.80;99.90
9980;DHT22;5030;51.532;6.766;2022-09-09T14:01:36;22.10;99.90
9980;DHT22;5030;51.532;6.766;2022-09-09T14:04:03;21.70;99.90
9980;DHT22;5030;51.532;6.766;2022-09-09T14:06:29;21.70;99.90
9980;DHT22;5030;51.532;6.766;2022-09-09T14:08:55;21.20;99.90
9980;DHT22;5030;51.532;6.766;2022-09-09T14:11:21;20.70;99.90
9980;DHT22;5030;51.532;6.766;2022-09-09T14:13:48;20.50;99.90
9980;DHT22;5030;51.532;6.766;2022-09-09T14:16:16;20.30;99.90
9980;DHT22;5030;51.532;6.766;2022-09-09T14:18:43;20.20;99.90
9980;DHT22;5030;51.532;6.766;2022-09-09T14:21:09;20.00;99.90
9980;DHT22;5030;51.532;6.766;2022-09-09T14:23:36;19.90;99.90
9980;DHT22;5030;51.532;6.766;2022-09-09T14:26:04;19.70;99.90
9980;DHT22;5030;51.532;6.766;2022-09-09T14:28:30;19.70;99.90
9980;DHT22;5030;51.532;6.766;2022-09-09T14:30:59;19.60;99.90
9980;DHT22;5030;51.532;6.766;2022-09-09T14:33:25;19.50;99.90
9980;DHT22;5030;51.532;6.766;2022-09-09T14:36:03;19.50;99.90
9980;DHT22;5030;51.532;6.766;2022-09-09T14:38:30;19.50;99.90
9980;DHT22;5030;51.532;6.766;2022-09-09T14:40:57;19.50;99.90
9980;DHT22;5030;51.532;6.766;2022-09-09T14:43:24;18.90;99.90
9980;DHT22;5030;51.532;6.766;2022-09-09T14:45:50;18.10;99.90
9980;DHT22;5030;51.532;6.766;2022-09-09T14:48:17;17.40;99.90
9980;DHT22;5030;51.532;6.766;2022-09-09T14:50:42;16.70;99.90
9980;DHT22;5030;51.532;6.766;2022-09-09T14:53:09;16.30;99.90
9980;DHT22;5030;51.532;6.766;2022-09-09T14:55:35;16.00;99.90
9980;DHT22;5030;51.532;6.766;2022-09-09T14:58:01;15.90;99.90
9980;DHT22;5030;51.532;6.766;2022-09-09T15:00:27;15.80;99.90
9980;DHT22;5030;51.532;6.766;2022-09-09T15:03:09;15.80;99.90
9980;DHT22;5030;51.532;6.766;2022-09-09T15:05:36;15.70;99.90
9980;DHT22;5030;51.532;6.766;2022-09-09T15:08:02;15.50;99.90
9980;DHT22;5030;51.532;6.766;2022-09-09T15:10:27;15.60;99.90
9980;DHT22;5030;51.532;6.766;2022-09-09T15:12:53;15.50;99.90
9980;DHT22;5030;51.532;6.766;2022-09-09T15:15:18;15.60;99.90
9980;DHT22;5030;51.532;6.766;2022-09-09T15:17:44;15.70;99.90
9980;DHT22;5030;51.532;6.766;2022-09-09T15:20:10;15.80;99.90
9980;DHT22;5030;51.532;6.766;2022-09-09T15:22:35;15.80;99.90
9980;DHT22;5030;51.532;6.766;2022-09-09T15:25:02;15.90;99.90
9980;DHT22;5030;51.532;6.766;2022-09-09T15:27:28;16.00;99.90
9980;DHT22;5030;51.532;6.766;2022-09-09T15:29:56;16.10;99.90
9980;DHT22;5030;51.532;6.766;2022-09-09T15:32:23;16.10;99.90
9980;DHT22;5030;51.532;6.766;2022-09-09T15:34:49;16.10;99.90
9980;DHT22;5030;51.532;6.766;2022-09-09T15:37:16;16.20;99.90
9980;DHT22;5030;51.532;6.766;2022-09-09T15:39:42;16.30;99.90
9980;DHT22;5030;51.532;6.766;2022-09-09T15:42:07;16.30;99.90
9980;DHT22;5030;51.532;6.766;2022-09-09T15:44:41;16.60;99.90
9980;DHT22;5030;51.532;6.766;2022-09-09T15:47:07;17.10;99.90
9980;DHT22;5030;51.532;6.766;2022-09-09T15:49:35;17.70;99.90
9980;DHT22;5030;51.532;6.766;2022-09-09T15:52:01;18.40;99.90
9980;DHT22;5030;51.532;6.766;2022-09-09T15:54:34;18.50;99.90
9980;DHT22;5030;51.532;6.766;2022-09-09T15:57:02;18.70;99.90
9980;DHT22;5030;51.532;6.766;2022-09-09T15:59:30;19.10;99.90
9980;DHT22;5030;51.532;6.766;2022-09-09T16:01:56;19.40;99.90
9980;DHT22;5030;51.532;6.766;2022-09-09T16:04:23;19.40;99.90
9980;DHT22;5030;51.532;6.766;2022-09-09T16:07:03;19.40;99.90
9980;DHT22;5030;51.532;6.766;2022-09-09T16:09:31;19.20;99.90
9980;DHT22;5030;51.532;6.766;2022-09-09T16:11:58;19.10;99.90
9980;DHT22;5030;51.532;6.766;2022-09-09T16:14:24;18.90;99.90
9980;DHT22;5030;51.532;6.766;2022-09-09T16:16:51;18.60;99.90
9980;DHT22;5030;51.532;6.766;2022-09-09T16:19:17;18.50;99.90
9980;DHT22;5030;51.532;6.766;2022-09-09T16:21:45;18.30;99.90
9980;DHT22;5030;51.532;6.766;2022-09-09T16:24:14;18.20;99.90
9980;DHT22;5030;51.532;6.766;2022-09-09T16:26:51;17.90;99.90
9980;DHT22;5030;51.532;6.766;2022-09-09T16:29:18;17.70;99.90
9980;DHT22;5030;51.532;6.766;2022-09-09T16:31:45;17.60;99.90
9980;DHT22;5030;51.532;6.766;2022-09-09T16:34:12;17.40;99.90
9980;DHT22;5030;51.532;6.766;2022-09-09T16:36:39;17.30;99.90
9980;DHT22;5030;51.532;6.766;2022-09-09T16:39:09;17.20;99.90
9980;DHT22;5030;51.532;6.766;2022-09-09T16:41:36;17.20;99.90
9980;DHT22;5030;51.532;6.766;2022-09-09T16:44:10;17.20;99.90
9980;DHT22;5030;51.532;6.766;2022-09-09T16:46:40;17.00;99.90
9980;DHT22;5030;51.532;6.766;2022-09-09T16:49:09;16.90;99.90
9980;DHT22;5030;51.532;6.766;2022-09-09T16:51:38;17.00;99.90
9980;DHT22;5030;51.532;6.766;2022-09-09T16:54:05;17.10;99.90
9980;DHT22;5030;51.532;6.766;2022-09-09T16:56:39;17.00;99.90
9980;DHT22;5030;51.532;6.766;2022-09-09T16:59:11;16.80;99.90
9980;DHT22;5030;51.532;6.766;2022-09-09T17:01:39;16.90;99.90
9980;DHT22;5030;51.532;6.766;2022-09-09T17:04:11;16.90;99.90
9980;DHT22;5030;51.532;6.766;2022-09-09T17:06:38;16.90;99.90
9980;DHT22;5030;51.532;6.766;2022-09-09T17:09:06;16.90;99.90
9980;DHT22;5030;51.532;6.766;2022-09-09T17:11:34;16.90;99.90
9980;DHT22;5030;51.532;6.766;2022-09-09T17:14:00;16.90;99.90
9980;DHT22;5030;51.532;6.766;2022-09-09T17:16:28;16.70;99.90
9980;DHT22;5030;51.532;6.766;2022-09-09T17:18:55;16.70;99.90
9980;DHT22;5030;51.532;6.766;2022-09-09T17:21:23;16.70;99.90
9980;DHT22;5030;51.532;6.766;2022-09-09T17:23:49;16.60;99.90
9980;DHT22;5030;51.532;6.766;2022-09-09T17:26:18;16.60;99.90
9980;DHT22;5030;51.532;6.766;2022-09-09T17:28:44;16.60;99.90
9980;DHT22;5030;51.532;6.766;2022-09-09T17:31:13;16.60;99.90
9980;DHT22;5030;51.532;6.766;2022-09-09T17:33:42;16.60;99.90
9980;DHT22;5030;51.532;6.766;2022-09-09T17:36:13;16.70;99.90
9980;DHT22;5030;51.532;6.766;2022-09-09T17:38:40;16.60;99.90
9980;DHT22;5030;51.532;6.766;2022-09-09T17:41:12;16.60;99.90
9980;DHT22;5030;51.532;6.766;2022-09-09T17:43:38;16.60;99.90
9980;DHT22;5030;51.532;6.766;2022-09-09T17:46:26;16.60;99.90
9980;DHT22;5030;51.532;6.766;2022-09-09T17:48:58;16.50;99.90
9980;DHT22;5030;51.532;6.766;2022-09-09T17:51:28;16.60;99.90
9980;DHT22;5030;51.532;6.766;2022-09-09T17:54:00;16.50;99.90
9980;DHT22;5030;51.532;6.766;2022-09-09T17:56:31;16.50;99.90
9980;DHT22;5030;51.532;6.766;2022-09-09T17:58:58;16.50;99.90
9980;DHT22;5030;51.532;6.766;2022-09-09T18:01:31;16.50;99.90
9980;DHT22;5030;51.532;6.766;2022-09-09T18:04:03;16.50;99.90
9980;DHT22;5030;51.532;6.766;2022-09-09T18:06:36;16.40;99.90
9980;DHT22;5030;51.532;6.766;2022-09-09T18:09:25;16.40;99.90
9980;DHT22;5030;51.532;6.766;2022-09-09T18:11:52;16.40;99.90
9980;DHT22;5030;51.532;6.766;2022-09-09T18:14:27;16.30;99.90
9980;DHT22;5030;51.532;6.766;2022-09-09T18:16:57;16.40;99.90
9980;DHT22;5030;51.532;6.766;2022-09-09T18:19:25;16.30;99.90
9980;DHT22;5030;51.532;6.766;2022-09-09T18:21:51;16.30;99.90
9980;DHT22;5030;51.532;6.766;2022-09-09T18:24:19;16.30;99.90
9980;DHT22;5030;51.532;6.766;2022-09-09T18:26:47;16.30;99.90
9980;DHT22;5030;51.532;6.766;2022-09-09T18:29:15;16.30;99.90